EST,Max TemperatureF,Mean TemperatureF,Min TemperatureF,Max Dew PointF,MeanDew PointF,Min DewpointF,Max Humidity, Mean Humidity, Min Humidity, Max Sea Level PressureIn, Mean Sea Level PressureIn, Min Sea Level PressureIn, Max VisibilityMiles, Mean VisibilityMiles, Min VisibilityMiles, Max Wind SpeedMPH, Mean Wind SpeedMPH, Max Gust SpeedMPH,PrecipitationIn, CloudCover, Events, WindDirDegrees
2010-11-1,65,59,53,57,50,42,90,73,56,30.33,30.22,30.08,10,10,10,17,10,28,0.00,0,,44
2010-11-2,63,58,53,52,45,41,77,65,52,30.36,30.30,30.24,10,10,10,17,10,26,0.00,1,,46
2010-11-3,68,64,60,67,61,53,100,87,73,30.22,30.00,29.81,10,8,2,17,9,22,0.23,8,Rain,65
2010-11-4,71,63,55,70,64,55,100,95,90,29.77,29.59,29.44,10,4,0,30,9,41,1.07,7,Fog-Rain,277
2010-11-5,59,54,48,55,48,39,100,78,55,29.91,29.66,29.49,10,10,8,14,7,20,0.02,5,Rain,306
2010-11-6,61,56,50,47,44,37,86,69,51,30.21,30.07,29.90,10,10,3,16,7,26,0.15,7,Rain,3
2010-11-7,54,52,49,43,38,31,80,63,46,30.29,30.21,30.14,10,10,10,16,9,29,0.00,1,,352
2010-11-8,58,53,48,46,37,32,71,57,43,30.09,29.93,29.80,10,10,10,14,9,21,0.00,0,,289
2010-11-9,59,52,44,46,43,40,93,74,55,29.96,29.91,29.81,10,10,10,14,5,20,0.00,0,,353
2010-11-10,59,53,46,50,47,46,89,78,67,30.13,30.05,29.94,10,10,10,14,7,26,0.00,6,,5
2010-11-11,58,56,54,51,48,44,93,80,66,30.31,30.21,30.12,10,10,9,17,10,30,0.00,6,,25
2010-11-12,60,57,53,48,47,44,77,72,67,30.29,30.25,30.20,10,10,10,17,10,29,0.00,8,,25
2010-11-13,62,58,54,51,50,48,89,79,69,30.19,30.12,30.08,10,10,10,13,7,22,0.00,4,,20
2010-11-14,61,52,42,53,48,39,96,83,69,30.09,30.06,30.03,10,9,2,7,3,,0.00,1,,16
2010-11-15,65,52,38,55,46,37,100,80,60,30.07,30.03,30.01,10,5,0,7,3,9,0.00,1,Fog,134
2010-11-16,71,63,55,65,61,55,100,89,78,30.01,29.88,29.79,10,5,0,21,9,28,0.83,5,Fog-Rain,177
2010-11-17,67,63,58,65,53,46,93,75,56,30.10,29.93,29.76,10,9,5,21,10,33,0.04,1,Rain,268
2010-11-18,63,59,54,49,44,40,77,63,48,30.18,30.14,30.10,10,10,10,12,6,21,0.00,0,,21
2010-11-19,58,49,40,44,40,36,86,67,47,30.35,30.29,30.17,10,10,10,13,6,22,0.00,0,,21
2010-11-20,64,53,42,53,48,39,89,73,56,30.36,30.32,30.27,10,10,10,15,8,20,0.00,0,,244
2010-11-21,68,58,48,55,50,45,100,76,52,30.42,30.37,30.32,10,9,4,8,3,12,0.00,0,,338
2010-11-22,71,59,46,61,51,44,93,71,49,30.40,30.34,30.24,10,8,2,9,4,12,0.00,2,,121
2010-11-23,69,66,62,62,61,59,93,87,81,30.22,30.11,30.01,10,10,8,15,9,21,0.00,3,,238
2010-11-24,67,56,45,60,44,36,87,63,39,30.25,30.17,30.03,10,10,10,15,8,28,0.00,2,,23
2010-11-25,70,58,45,63,53,42,87,75,63,30.22,30.11,29.94,10,10,8,15,8,21,T,3,,133
2010-11-26,71,66,60,64,60,54,93,83,73,29.92,29.82,29.74,10,9,6,20,11,29,T,4,,253
2010-11-27,61,55,48,58,35,28,90,64,38,30.16,29.93,29.74,10,10,10,17,8,28,T,2,Rain,321
2010-11-28,54,50,46,39,35,29,71,57,42,30.42,30.33,30.16,10,10,10,12,7,21,0.00,1,,40
2010-11-29,69,59,48,54,49,39,93,76,58,30.45,30.40,30.34,10,10,10,12,6,17,0.00,1,,52
2010-11-30,73,68,62,62,58,53,87,74,61,30.32,30.22,30.04,10,9,6,23,14,31,0.01,7,Rain,154